createdAt,value
2018-06-03T00:00:46.746Z,19.20
2018-06-03T00:03:19.425Z,19.20
2018-06-03T00:05:51.902Z,19.20
2018-06-03T00:08:24.287Z,19.10
2018-06-03T00:10:56.700Z,19.10
2018-06-03T00:13:29.382Z,19.10
2018-06-03T00:16:01.780Z,19.10
2018-06-03T00:18:34.158Z,19.10
2018-06-03T00:21:17.872Z,19.10
2018-06-03T00:23:50.406Z,19.10
2018-06-03T00:26:23.044Z,19.10
2018-06-03T00:28:55.686Z,19.00
2018-06-03T00:31:28.107Z,19.00
2018-06-03T00:34:00.698Z,19.00
2018-06-03T00:36:43.281Z,19.00
2018-06-03T00:39:15.664Z,19.00
2018-06-03T00:41:48.061Z,19.00
2018-06-03T00:44:20.442Z,18.90
2018-06-03T00:46:52.841Z,18.90
2018-06-03T00:49:25.230Z,18.90
2018-06-03T00:51:57.950Z,18.90
2018-06-03T00:54:30.337Z,18.90
2018-06-03T00:57:09.821Z,18.90
2018-06-03T00:59:42.474Z,18.90
2018-06-03T01:02:15.182Z,18.90
2018-06-03T01:04:47.567Z,18.90
2018-06-03T01:07:19.970Z,18.90
2018-06-03T01:09:52.360Z,18.80
2018-06-03T01:12:24.762Z,18.90
2018-06-03T01:14:57.204Z,18.90
2018-06-03T01:17:29.606Z,18.90
2018-06-03T01:20:02.213Z,18.90
2018-06-03T01:22:34.638Z,18.80
2018-06-03T01:25:07.033Z,18.80
2018-06-03T01:27:39.426Z,18.80
2018-06-03T01:30:12.110Z,18.80
2018-06-03T01:32:44.768Z,18.80
2018-06-03T01:35:17.153Z,18.80
2018-06-03T01:37:49.557Z,18.80
2018-06-03T01:40:21.969Z,18.70
2018-06-03T01:42:54.378Z,18.70
2018-06-03T01:45:26.782Z,18.70
2018-06-03T01:47:59.191Z,18.80
2018-06-03T01:50:31.579Z,18.80
2018-06-03T01:53:04.341Z,18.80
2018-06-03T01:55:36.733Z,18.70
2018-06-03T01:58:09.390Z,18.70
2018-06-03T02:00:42.070Z,18.60
2018-06-03T02:03:14.774Z,18.60
2018-06-03T02:05:47.162Z,18.50
2018-06-03T02:08:19.570Z,18.50
2018-06-03T02:10:51.958Z,18.50
2018-06-03T02:13:24.381Z,18.50
2018-06-03T02:15:56.766Z,18.50
2018-06-03T02:18:29.410Z,18.50
2018-06-03T02:21:01.799Z,18.50
2018-06-03T02:23:34.230Z,18.50
2018-06-03T02:26:06.627Z,18.50
2018-06-03T02:31:11.504Z,18.40
2018-06-03T02:33:43.914Z,18.40
2018-06-03T02:36:16.629Z,18.40
2018-06-03T02:38:49.042Z,18.30
2018-06-03T02:41:21.461Z,18.30
2018-06-03T02:43:54.146Z,18.30
2018-06-03T02:46:26.526Z,18.30
2018-06-03T02:48:58.922Z,18.30
2018-06-03T02:51:31.466Z,18.20
2018-06-03T02:56:36.384Z,18.20
2018-06-03T02:59:08.781Z,18.10
2018-06-03T03:01:41.445Z,18.10
2018-06-03T03:04:13.861Z,18.00
2018-06-03T03:06:46.255Z,18.00
2018-06-03T03:09:18.682Z,17.90
2018-06-03T03:11:51.082Z,17.90
2018-06-03T03:14:23.494Z,17.90
2018-06-03T03:16:55.894Z,17.90
2018-06-03T03:19:28.598Z,17.90
2018-06-03T03:22:00.990Z,17.90
2018-06-03T03:24:33.389Z,17.90
2018-06-03T03:27:06.074Z,18.00
2018-06-03T03:29:38.474Z,18.00
2018-06-03T03:32:10.862Z,18.00
2018-06-03T03:34:43.508Z,18.00
2018-06-03T03:37:16.177Z,18.00
2018-06-03T03:39:48.578Z,18.10
2018-06-03T03:44:53.527Z,18.00
2018-06-03T03:47:25.918Z,18.10
2018-06-03T03:49:58.325Z,18.10
2018-06-03T03:52:30.722Z,18.10
2018-06-03T03:55:03.431Z,18.20
2018-06-03T03:57:36.062Z,18.20
2018-06-03T04:00:08.494Z,18.20
2018-06-03T04:02:40.875Z,18.20
2018-06-03T04:05:13.941Z,18.30
2018-06-03T04:07:46.335Z,18.40
2018-06-03T04:10:18.768Z,18.40
2018-06-03T04:12:51.151Z,18.40
2018-06-03T04:15:23.841Z,18.40
2018-06-03T04:17:56.483Z,18.40
2018-06-03T04:20:29.198Z,18.50
2018-06-03T04:23:01.597Z,18.50
2018-06-03T04:25:34.005Z,18.50
2018-06-03T04:28:06.390Z,18.60
2018-06-03T04:30:38.803Z,18.60
2018-06-03T04:33:11.181Z,18.60
2018-06-03T04:35:43.897Z,18.60
2018-06-03T04:38:16.289Z,18.60
2018-06-03T04:40:48.727Z,18.70
2018-06-03T04:43:21.141Z,18.80
2018-06-03T04:45:53.552Z,18.80
2018-06-03T04:48:25.941Z,18.90
2018-06-03T04:50:58.357Z,18.90
2018-06-03T04:56:03.321Z,19.10
2018-06-03T04:58:35.701Z,19.30
2018-06-03T05:01:08.097Z,19.60
2018-06-03T05:03:41.052Z,19.80
2018-06-03T05:06:13.726Z,19.80
2018-06-03T05:08:46.372Z,19.70
2018-06-03T05:11:18.770Z,19.70
2018-06-03T05:13:51.169Z,19.80
2018-06-03T05:16:23.660Z,19.90
2018-06-03T05:18:56.038Z,20.00
2018-06-03T05:21:28.448Z,20.00
2018-06-03T05:24:01.119Z,20.10
2018-06-03T05:26:34.293Z,20.10
2018-06-03T05:29:06.981Z,20.30
2018-06-03T05:31:39.386Z,20.50
2018-06-03T05:34:11.777Z,20.60
2018-06-03T05:36:44.425Z,20.60
2018-06-03T05:39:17.061Z,20.60
2018-06-03T05:41:49.769Z,20.60
2018-06-03T05:44:22.171Z,20.60
2018-06-03T05:46:54.930Z,20.70
2018-06-03T05:49:27.590Z,20.90
2018-06-03T05:52:00.044Z,21.00
2018-06-03T05:54:32.437Z,20.90
2018-06-03T05:57:04.885Z,21.00
2018-06-03T05:59:37.310Z,21.10
2018-06-03T06:02:09.758Z,21.20
2018-06-03T06:04:42.175Z,21.30
2018-06-03T06:07:15.257Z,21.50
2018-06-03T06:09:48.007Z,21.70
2018-06-03T06:12:20.434Z,21.90
2018-06-03T06:14:52.851Z,22.00
2018-06-03T06:17:25.294Z,22.30
2018-06-03T06:19:57.697Z,22.60
2018-06-03T06:22:30.134Z,22.80
2018-06-03T06:25:02.545Z,22.90
2018-06-03T06:27:35.252Z,22.80
2018-06-03T06:30:07.668Z,22.80
2018-06-03T06:32:40.122Z,22.80
2018-06-03T06:35:12.578Z,22.90
2018-06-03T06:37:45.019Z,22.90
2018-06-03T06:40:17.443Z,22.80
2018-06-03T06:42:49.858Z,22.70
2018-06-03T06:45:22.259Z,22.70
2018-06-03T06:47:54.914Z,22.80
2018-06-03T06:50:27.885Z,22.90
2018-06-03T06:53:00.326Z,23.00
2018-06-03T06:55:32.702Z,23.00
2018-06-03T06:58:05.445Z,23.20
2018-06-03T07:00:37.835Z,23.60
2018-06-03T07:03:10.352Z,24.30
2018-06-03T07:05:42.778Z,25.30
2018-06-03T07:08:15.202Z,26.30
2018-06-03T07:10:48.006Z,26.50
2018-06-03T07:13:20.713Z,26.10
2018-06-03T07:15:53.437Z,25.60
2018-06-03T07:18:25.836Z,25.50
2018-06-03T07:20:58.519Z,25.90
2018-06-03T07:23:30.945Z,25.80
2018-06-03T07:26:03.333Z,25.50
2018-06-03T07:28:35.751Z,25.00
2018-06-03T07:31:08.137Z,24.60
2018-06-03T07:33:40.559Z,24.30
2018-06-03T07:36:12.961Z,24.20
2018-06-03T07:38:45.382Z,24.20
2018-06-03T07:41:17.788Z,24.00
2018-06-03T07:43:50.201Z,24.00
2018-06-03T07:46:22.589Z,24.00
2018-06-03T07:48:55.245Z,24.10
2018-06-03T07:51:27.642Z,24.10
2018-06-03T07:54:00.055Z,23.80
2018-06-03T07:56:32.494Z,23.40
2018-06-03T07:59:04.917Z,23.40
2018-06-03T08:01:37.924Z,23.40
2018-06-03T08:04:10.611Z,23.20
2018-06-03T08:06:43.014Z,23.40
2018-06-03T08:09:15.750Z,23.60
2018-06-03T08:14:20.442Z,25.70
2018-06-03T08:16:54.209Z,26.50
2018-06-03T08:19:26.614Z,27.30
2018-06-03T08:21:59.017Z,27.80
2018-06-03T08:24:31.681Z,28.60
2018-06-03T08:27:04.354Z,28.80
2018-06-03T08:29:36.790Z,28.90
2018-06-03T08:32:09.178Z,28.40
2018-06-03T08:34:41.569Z,27.80
2018-06-03T08:37:13.958Z,27.00
2018-06-03T08:39:46.378Z,26.50
2018-06-03T08:42:18.832Z,26.10
2018-06-03T08:44:51.279Z,25.60
2018-06-03T08:47:23.671Z,25.00
2018-06-03T08:49:56.078Z,25.00
2018-06-03T08:52:28.470Z,25.10
2018-06-03T08:55:00.902Z,25.40
2018-06-03T08:57:33.303Z,25.90
2018-06-03T09:00:05.708Z,26.80
2018-06-03T09:02:38.099Z,27.50
2018-06-03T09:05:10.502Z,27.80
2018-06-03T09:07:43.160Z,27.90
2018-06-03T09:10:15.570Z,28.20
2018-06-03T09:12:47.961Z,28.90
2018-06-03T09:15:20.397Z,29.40
2018-06-03T09:17:52.803Z,30.10
2018-06-03T09:20:25.218Z,30.50
2018-06-03T09:22:57.614Z,29.90
2018-06-03T09:25:30.033Z,29.20
2018-06-03T09:28:02.710Z,29.10
2018-06-03T09:30:35.383Z,29.30
2018-06-03T09:33:08.064Z,29.40
2018-06-03T09:35:41.075Z,29.90
2018-06-03T09:38:13.707Z,29.80
2018-06-03T09:40:46.439Z,29.60
2018-06-03T09:43:19.512Z,29.80
2018-06-03T09:45:51.942Z,29.50
2018-06-03T09:48:24.375Z,29.00
2018-06-03T09:50:57.030Z,27.80
2018-06-03T09:53:29.429Z,27.70
2018-06-03T09:56:02.414Z,27.80
2018-06-03T09:58:35.161Z,27.80
2018-06-03T10:01:08.186Z,27.10
2018-06-03T10:03:40.859Z,26.60
2018-06-03T10:06:13.537Z,25.90
2018-06-03T10:08:46.154Z,25.60
2018-06-03T10:11:18.595Z,25.60
2018-06-03T10:13:50.971Z,25.20
2018-06-03T10:16:23.748Z,25.40
2018-06-03T10:18:56.163Z,26.40
2018-06-03T10:21:28.578Z,27.40
2018-06-03T10:24:00.966Z,27.90
2018-06-03T10:26:33.610Z,28.50
2018-06-03T10:29:05.995Z,28.30
2018-06-03T10:31:38.394Z,27.60
2018-06-03T10:34:10.774Z,27.30
2018-06-03T10:36:43.182Z,27.40
2018-06-03T10:39:15.575Z,28.20
2018-06-03T10:41:47.987Z,29.20
2018-06-03T10:44:20.400Z,29.50
2018-06-03T10:46:52.806Z,29.30
2018-06-03T10:49:25.197Z,28.90
2018-06-03T10:51:58.173Z,28.60
2018-06-03T10:54:30.859Z,28.00
2018-06-03T10:57:03.530Z,27.40
2018-06-03T10:59:35.909Z,26.50
2018-06-03T11:02:08.311Z,26.30
2018-06-03T11:04:40.697Z,26.10
2018-06-03T11:07:13.126Z,26.10
2018-06-03T11:09:45.512Z,26.00
2018-06-03T11:12:18.245Z,25.70
2018-06-03T11:14:50.891Z,25.70
2018-06-03T11:17:23.326Z,25.70
2018-06-03T11:19:55.721Z,25.60
2018-06-03T11:22:28.358Z,25.40
2018-06-03T11:25:00.991Z,25.60
2018-06-03T11:27:33.465Z,25.70
2018-06-03T11:30:05.798Z,25.80
2018-06-03T11:32:38.449Z,25.70
2018-06-03T11:35:10.837Z,25.70
2018-06-03T11:37:43.510Z,25.50
2018-06-03T11:40:15.921Z,25.50
2018-06-03T11:42:48.326Z,25.60
2018-06-03T11:45:21.315Z,25.80
2018-06-03T11:47:53.994Z,26.20
2018-06-03T11:50:26.407Z,26.30
2018-06-03T11:52:58.810Z,26.30
2018-06-03T11:55:31.205Z,26.30
2018-06-03T11:58:41.123Z,26.10
2018-06-03T12:01:13.506Z,26.10
2018-06-03T12:03:45.919Z,26.00
2018-06-03T12:06:18.304Z,26.20
2018-06-03T12:08:50.998Z,26.10
2018-06-03T12:11:23.690Z,25.80
2018-06-03T12:13:56.430Z,25.90
2018-06-03T12:16:28.817Z,25.90
2018-06-03T12:19:01.247Z,25.60
2018-06-03T12:21:33.697Z,25.20
2018-06-03T12:24:06.662Z,25.10
2018-06-03T12:26:39.042Z,25.10
2018-06-03T12:29:11.691Z,25.30
2018-06-03T12:31:44.081Z,25.40
2018-06-03T12:34:16.485Z,25.20
2018-06-03T12:36:48.869Z,25.20
2018-06-03T12:39:21.595Z,25.00
2018-06-03T12:41:54.376Z,25.00
2018-06-03T12:44:27.384Z,25.10
2018-06-03T12:47:01.139Z,25.30
2018-06-03T12:49:33.593Z,25.50
2018-06-03T12:52:06.043Z,25.30
2018-06-03T12:54:38.478Z,25.50
2018-06-03T12:57:10.901Z,25.50
2018-06-03T12:59:43.638Z,25.60
2018-06-03T13:02:16.054Z,25.60
2018-06-03T13:04:48.491Z,25.40
2018-06-03T13:07:20.894Z,25.40
2018-06-03T13:09:53.298Z,25.30
2018-06-03T13:12:25.697Z,25.20
2018-06-03T13:17:30.907Z,25.20
2018-06-03T13:20:03.538Z,25.40
2018-06-03T13:22:36.165Z,25.30
2018-06-03T13:25:08.628Z,25.30
2018-06-03T13:27:41.002Z,25.70
2018-06-03T13:30:13.401Z,25.80
2018-06-03T13:32:45.798Z,26.00
2018-06-03T13:35:18.203Z,26.00
2018-06-03T13:37:50.580Z,25.80
2018-06-03T13:40:22.974Z,25.70
2018-06-03T13:42:55.412Z,25.60
2018-06-03T13:45:27.988Z,25.80
2018-06-03T13:48:00.417Z,25.70
2018-06-03T13:50:33.121Z,25.70
2018-06-03T13:53:05.764Z,25.70
2018-06-03T13:55:38.478Z,25.40
2018-06-03T13:58:11.238Z,25.10
2018-06-03T14:00:43.693Z,25.20
2018-06-03T14:03:16.702Z,25.30
2018-06-03T14:05:49.122Z,25.30
2018-06-03T14:08:21.545Z,25.30
2018-06-03T14:10:54.266Z,25.30
2018-06-03T14:13:26.680Z,25.20
2018-06-03T14:15:59.123Z,25.20
2018-06-03T14:18:31.534Z,25.20
2018-06-03T14:21:04.257Z,25.20
2018-06-03T14:23:36.675Z,25.10
2018-06-03T14:26:09.110Z,24.90
2018-06-03T14:28:41.522Z,25.00
2018-06-03T14:31:13.959Z,25.10
2018-06-03T14:33:46.626Z,25.20
2018-06-03T14:36:19.061Z,25.10
2018-06-03T14:38:51.474Z,25.20
2018-06-03T14:41:23.914Z,25.20
2018-06-03T14:43:56.286Z,25.10
2018-06-03T14:46:28.705Z,25.10
2018-06-03T14:49:01.366Z,25.20
2018-06-03T14:51:33.791Z,25.20
2018-06-03T14:54:06.468Z,25.30
2018-06-03T14:56:38.988Z,25.40
2018-06-03T14:59:11.326Z,25.30
2018-06-03T15:01:44.051Z,25.20
2018-06-03T15:04:16.430Z,25.30
2018-06-03T15:06:48.835Z,25.30
2018-06-03T15:09:21.218Z,25.50
2018-06-03T15:11:53.630Z,25.50
2018-06-03T15:14:26.318Z,25.50
2018-06-03T15:16:58.734Z,25.40
2018-06-03T15:19:31.121Z,25.40
2018-06-03T15:22:03.540Z,25.30
2018-06-03T15:24:36.233Z,25.20
2018-06-03T15:27:08.967Z,25.10
2018-06-03T15:29:41.373Z,25.00
2018-06-03T15:32:13.798Z,25.00
2018-06-03T15:37:18.505Z,25.00
2018-06-03T15:39:50.922Z,24.90
2018-06-03T15:42:23.327Z,24.90
2018-06-03T15:44:55.722Z,24.80
2018-06-03T15:47:28.133Z,24.60
2018-06-03T15:50:00.540Z,24.60
2018-06-03T15:52:32.979Z,24.60
2018-06-03T15:55:05.373Z,24.60
2018-06-03T15:57:37.823Z,24.60
2018-06-03T16:00:10.506Z,24.70
2018-06-03T16:02:42.930Z,24.70
2018-06-03T16:05:15.332Z,24.80
2018-06-03T16:07:48.096Z,24.80
2018-06-03T16:10:20.551Z,24.80
2018-06-03T16:12:52.965Z,24.80
2018-06-03T16:15:25.352Z,24.90
2018-06-03T16:17:58.073Z,24.90
2018-06-03T16:20:30.757Z,24.90
2018-06-03T16:23:03.243Z,24.90
2018-06-03T16:25:35.701Z,24.90
2018-06-03T16:28:08.176Z,24.80
2018-06-03T16:30:40.557Z,24.80
2018-06-03T16:33:13.122Z,24.80
2018-06-03T16:35:45.510Z,24.80
2018-06-03T16:38:17.946Z,24.70
2018-06-03T16:40:50.363Z,24.70
2018-06-03T16:43:22.801Z,24.70
2018-06-03T16:45:55.190Z,24.70
2018-06-03T16:48:27.597Z,24.80
2018-06-03T16:51:00.282Z,24.90
2018-06-03T16:53:32.742Z,24.90
2018-06-03T16:56:05.137Z,25.00
2018-06-03T16:58:37.539Z,24.90
2018-06-03T17:01:10.228Z,24.90
2018-06-03T17:03:42.677Z,24.90
2018-06-03T17:06:15.064Z,24.90
2018-06-03T17:08:47.477Z,24.90
2018-06-03T17:11:19.874Z,24.80
2018-06-03T17:13:52.388Z,24.80
2018-06-03T17:16:24.795Z,24.70
2018-06-03T17:18:57.232Z,24.60
2018-06-03T17:21:29.613Z,24.60
2018-06-03T17:24:02.040Z,24.70
2018-06-03T17:26:34.476Z,24.70
2018-06-03T17:29:07.207Z,24.70
2018-06-03T17:31:39.586Z,24.50
2018-06-03T17:34:12.245Z,24.40
2018-06-03T17:36:44.755Z,24.30
2018-06-03T17:39:17.166Z,24.30
2018-06-03T17:41:49.670Z,24.10
2018-06-03T17:44:22.689Z,24.10
2018-06-03T17:46:55.132Z,24.10
2018-06-03T17:49:27.565Z,24.10
2018-06-03T17:51:59.986Z,24.10
2018-06-03T17:54:32.466Z,24.10
2018-06-03T17:57:04.883Z,24.10
2018-06-03T17:59:37.335Z,24.10
2018-06-03T18:02:10.006Z,24.00
2018-06-03T18:04:42.580Z,24.00
2018-06-03T18:07:15.266Z,23.90
2018-06-03T18:09:47.951Z,23.90
2018-06-03T18:12:20.618Z,23.90
2018-06-03T18:14:53.382Z,23.90
2018-06-03T18:17:25.794Z,23.90
2018-06-03T18:19:58.245Z,23.90
2018-06-03T18:22:30.971Z,23.80
2018-06-03T18:25:03.393Z,23.80
2018-06-03T18:27:35.810Z,23.80
2018-06-03T18:30:08.241Z,23.80
2018-06-03T18:32:40.662Z,23.70
2018-06-03T18:35:13.090Z,23.70
2018-06-03T18:37:45.512Z,23.60
2018-06-03T18:40:18.445Z,23.60
2018-06-03T18:42:51.094Z,23.50
2018-06-03T18:45:23.542Z,23.50
2018-06-03T18:47:55.967Z,23.50
2018-06-03T18:50:28.390Z,23.40
2018-06-03T18:53:01.047Z,23.40
2018-06-03T18:55:33.777Z,23.30
2018-06-03T18:58:06.550Z,23.30
2018-06-03T19:00:39.209Z,23.30
2018-06-03T19:03:11.902Z,23.20
2018-06-03T19:05:44.325Z,23.20
2018-06-03T19:08:16.768Z,23.10
2018-06-03T19:10:49.198Z,23.10
2018-06-03T19:13:21.611Z,23.00
2018-06-03T19:15:54.055Z,23.00
2018-06-03T19:18:26.728Z,22.90
2018-06-03T19:20:59.164Z,22.90
2018-06-03T19:23:31.586Z,22.80
2018-06-03T19:26:04.034Z,22.80
2018-06-03T19:28:36.450Z,22.70
2018-06-03T19:31:09.266Z,22.70
2018-06-03T19:33:42.009Z,22.60
2018-06-03T19:36:14.454Z,22.60
